sensor_id;sensor_type;location;lat;lon;timestamp;temperature;humidity
26990;DHT22;14537;47.788;11.858;2024-02-21T00:02:11;0.20;99.90
26990;DHT22;14537;47.788;11.858;2024-02-21T00:04:37;0.20;99.90
26990;DHT22;14537;47.788;11.858;2024-02-21T00:07:05;0.10;99.90
26990;DHT22;14537;47.788;11.858;2024-02-21T00:09:30;0.10;99.90
26990;DHT22;14537;47.788;11.858;2024-02-21T00:11:56;0.10;99.90
26990;DHT22;14537;47.788;11.858;2024-02-21T00:14:24;0.00;99.90
26990;DHT22;14537;47.788;11.858;2024-02-21T00:16:49;0.00;99.90
26990;DHT22;14537;47.788;11.858;2024-02-21T00:19:15;0.00;99.90
26990;DHT22;14537;47.788;11.858;2024-02-21T00:21:40;0.00;99.90
26990;DHT22;14537;47.788;11.858;2024-02-21T00:24:06;0.00;99.90
26990;DHT22;14537;47.788;11.858;2024-02-21T00:26:32;0.00;99.90
26990;DHT22;14537;47.788;11.858;2024-02-21T00:28:57;0.00;99.90
26990;DHT22;14537;47.788;11.858;2024-02-21T00:31:23;-0.10;99.90
26990;DHT22;14537;47.788;11.858;2024-02-21T00:33:49;-0.10;99.90
26990;DHT22;14537;47.788;11.858;2024-02-21T00:36:16;-0.10;99.90
26990;DHT22;14537;47.788;11.858;2024-02-21T00:38:41;-0.10;99.90
26990;DHT22;14537;47.788;11.858;2024-02-21T00:41:07;-0.10;99.90
26990;DHT22;14537;47.788;11.858;2024-02-21T00:43:32;-0.10;99.90
26990;DHT22;14537;47.788;11.858;2024-02-21T00:45:58;-0.10;99.90
26990;DHT22;14537;47.788;11.858;2024-02-21T00:48:23;-0.10;99.90
26990;DHT22;14537;47.788;11.858;2024-02-21T00:50:49;-0.10;99.90
26990;DHT22;14537;47.788;11.858;2024-02-21T00:53:15;0.00;99.90
26990;DHT22;14537;47.788;11.858;2024-02-21T00:55:40;0.00;99.90
26990;DHT22;14537;47.788;11.858;2024-02-21T00:58:06;0.00;99.90
26990;DHT22;14537;47.788;11.858;2024-02-21T01:00:31;-0.10;99.90
26990;DHT22;14537;47.788;11.858;2024-02-21T01:02:57;-0.10;99.90
26990;DHT22;14537;47.788;11.858;2024-02-21T01:05:23;0.00;99.90
26990;DHT22;14537;47.788;11.858;2024-02-21T01:07:48;0.00;99.90
26990;DHT22;14537;47.788;11.858;2024-02-21T01:10:14;0.10;99.90
26990;DHT22;14537;47.788;11.858;2024-02-21T01:12:39;0.10;99.90
26990;DHT22;14537;47.788;11.858;2024-02-21T01:15:05;0.10;99.90
26990;DHT22;14537;47.788;11.858;2024-02-21T01:17:31;0.00;99.90
26990;DHT22;14537;47.788;11.858;2024-02-21T01:19:56;0.10;99.90
26990;DHT22;14537;47.788;11.858;2024-02-21T01:22:22;0.20;99.90
26990;DHT22;14537;47.788;11.858;2024-02-21T01:24:47;0.20;99.90
26990;DHT22;14537;47.788;11.858;2024-02-21T01:27:13;0.20;99.90
26990;DHT22;14537;47.788;11.858;2024-02-21T01:29:39;0.20;99.90
26990;DHT22;14537;47.788;11.858;2024-02-21T01:32:04;0.20;99.90
26990;DHT22;14537;47.788;11.858;2024-02-21T01:34:30;0.30;99.90
26990;DHT22;14537;47.788;11.858;2024-02-21T01:36:56;0.40;99.90
26990;DHT22;14537;47.788;11.858;2024-02-21T01:39:21;0.40;99.90
26990;DHT22;14537;47.788;11.858;2024-02-21T01:41:47;0.50;99.90
26990;DHT22;14537;47.788;11.858;2024-02-21T01:44:13;0.50;99.90
26990;DHT22;14537;47.788;11.858;2024-02-21T01:46:39;0.50;99.90
26990;DHT22;14537;47.788;11.858;2024-02-21T01:49:05;0.50;99.90
26990;DHT22;14537;47.788;11.858;2024-02-21T01:51:31;0.60;99.90
26990;DHT22;14537;47.788;11.858;2024-02-21T01:53:57;0.60;99.90
26990;DHT22;14537;47.788;11.858;2024-02-21T01:56:23;0.70;99.90
26990;DHT22;14537;47.788;11.858;2024-02-21T01:58:49;0.80;99.90
26990;DHT22;14537;47.788;11.858;2024-02-21T02:01:16;0.80;99.90
26990;DHT22;14537;47.788;11.858;2024-02-21T02:03:42;0.80;99.90
26990;DHT22;14537;47.788;11.858;2024-02-21T02:06:10;0.80;99.90
26990;DHT22;14537;47.788;11.858;2024-02-21T02:08:35;0.70;99.90
26990;DHT22;14537;47.788;11.858;2024-02-21T02:11:02;0.70;99.90
26990;DHT22;14537;47.788;11.858;2024-02-21T02:13:27;0.70;99.90
26990;DHT22;14537;47.788;11.858;2024-02-21T02:15:53;0.60;99.90
26990;DHT22;14537;47.788;11.858;2024-02-21T02:18:19;0.60;99.90
26990;DHT22;14537;47.788;11.858;2024-02-21T02:20:45;0.50;99.90
26990;DHT22;14537;47.788;11.858;2024-02-21T02:23:32;0.60;99.90
26990;DHT22;14537;47.788;11.858;2024-02-21T02:25:58;0.60;99.90
26990;DHT22;14537;47.788;11.858;2024-02-21T02:28:24;0.60;99.90
26990;DHT22;14537;47.788;11.858;2024-02-21T02:30:50;0.60;99.90
26990;DHT22;14537;47.788;11.858;2024-02-21T02:33:16;0.60;99.90
26990;DHT22;14537;47.788;11.858;2024-02-21T02:35:45;0.60;99.90
26990;DHT22;14537;47.788;11.858;2024-02-21T02:38:11;0.70;99.90
26990;DHT22;14537;47.788;11.858;2024-02-21T02:40:40;0.70;99.90
26990;DHT22;14537;47.788;11.858;2024-02-21T02:43:06;0.70;99.90
26990;DHT22;14537;47.788;11.858;2024-02-21T02:45:32;0.70;99.90
26990;DHT22;14537;47.788;11.858;2024-02-21T02:47:58;0.70;99.90
26990;DHT22;14537;47.788;11.858;2024-02-21T02:50:24;0.70;99.90
26990;DHT22;14537;47.788;11.858;2024-02-21T02:52:50;0.70;99.90
26990;DHT22;14537;47.788;11.858;2024-02-21T02:55:16;0.80;99.90
26990;DHT22;14537;47.788;11.858;2024-02-21T02:57:42;0.70;99.90
26990;DHT22;14537;47.788;11.858;2024-02-21T03:00:08;0.70;99.90
26990;DHT22;14537;47.788;11.858;2024-02-21T03:02:35;0.70;99.90
26990;DHT22;14537;47.788;11.858;2024-02-21T03:05:01;0.70;99.90
26990;DHT22;14537;47.788;11.858;2024-02-21T03:07:26;0.70;99.90
26990;DHT22;14537;47.788;11.858;2024-02-21T03:09:52;0.70;99.90
26990;DHT22;14537;47.788;11.858;2024-02-21T03:12:19;0.70;99.90
26990;DHT22;14537;47.788;11.858;2024-02-21T03:14:50;0.60;99.90
26990;DHT22;14537;47.788;11.858;2024-02-21T03:17:16;0.60;99.90
26990;DHT22;14537;47.788;11.858;2024-02-21T03:19:41;0.60;99.90
26990;DHT22;14537;47.788;11.858;2024-02-21T03:22:07;0.60;99.90
26990;DHT22;14537;47.788;11.858;2024-02-21T03:24:33;0.60;99.90
26990;DHT22;14537;47.788;11.858;2024-02-21T03:26:58;0.60;99.90
26990;DHT22;14537;47.788;11.858;2024-02-21T03:29:25;0.60;99.90
26990;DHT22;14537;47.788;11.858;2024-02-21T03:31:51;0.60;99.90
26990;DHT22;14537;47.788;11.858;2024-02-21T03:34:16;0.60;99.90
26990;DHT22;14537;47.788;11.858;2024-02-21T03:36:42;0.70;99.90
26990;DHT22;14537;47.788;11.858;2024-02-21T03:39:07;0.70;99.90
26990;DHT22;14537;47.788;11.858;2024-02-21T03:41:34;0.70;99.90
26990;DHT22;14537;47.788;11.858;2024-02-21T03:44:00;0.80;99.90
26990;DHT22;14537;47.788;11.858;2024-02-21T03:46:27;0.80;99.90
26990;DHT22;14537;47.788;11.858;2024-02-21T03:48:53;0.80;99.90
26990;DHT22;14537;47.788;11.858;2024-02-21T03:51:18;0.80;99.90
26990;DHT22;14537;47.788;11.858;2024-02-21T03:53:44;0.90;99.90
26990;DHT22;14537;47.788;11.858;2024-02-21T03:56:10;0.90;99.90
26990;DHT22;14537;47.788;11.858;2024-02-21T03:58:35;0.90;99.90
26990;DHT22;14537;47.788;11.858;2024-02-21T04:01:02;1.00;99.90
26990;DHT22;14537;47.788;11.858;2024-02-21T04:03:28;0.90;99.90
26990;DHT22;14537;47.788;11.858;2024-02-21T04:05:53;0.90;99.90
26990;DHT22;14537;47.788;11.858;2024-02-21T04:08:19;0.90;99.90
26990;DHT22;14537;47.788;11.858;2024-02-21T04:10:45;1.00;99.90
26990;DHT22;14537;47.788;11.858;2024-02-21T04:13:10;1.00;99.90
26990;DHT22;14537;47.788;11.858;2024-02-21T04:15:36;1.10;99.90
26990;DHT22;14537;47.788;11.858;2024-02-21T04:18:02;1.10;99.90
26990;DHT22;14537;47.788;11.858;2024-02-21T04:20:29;1.10;99.90
26990;DHT22;14537;47.788;11.858;2024-02-21T04:22:55;1.10;99.90
26990;DHT22;14537;47.788;11.858;2024-02-21T04:25:20;1.10;99.90
26990;DHT22;14537;47.788;11.858;2024-02-21T04:27:46;1.20;99.90
26990;DHT22;14537;47.788;11.858;2024-02-21T04:30:12;1.20;99.90
26990;DHT22;14537;47.788;11.858;2024-02-21T04:32:38;1.20;99.90
26990;DHT22;14537;47.788;11.858;2024-02-21T04:35:04;1.20;99.90
26990;DHT22;14537;47.788;11.858;2024-02-21T04:37:30;1.10;99.90
26990;DHT22;14537;47.788;11.858;2024-02-21T04:39:56;1.20;99.90
26990;DHT22;14537;47.788;11.858;2024-02-21T04:42:22;1.20;99.90
26990;DHT22;14537;47.788;11.858;2024-02-21T04:44:47;1.20;99.90
26990;DHT22;14537;47.788;11.858;2024-02-21T04:47:13;1.20;99.90
26990;DHT22;14537;47.788;11.858;2024-02-21T04:49:39;1.20;99.90
26990;DHT22;14537;47.788;11.858;2024-02-21T04:52:04;1.20;99.90
26990;DHT22;14537;47.788;11.858;2024-02-21T04:54:30;1.20;99.90
26990;DHT22;14537;47.788;11.858;2024-02-21T04:56:56;1.30;99.90
26990;DHT22;14537;47.788;11.858;2024-02-21T04:59:21;1.30;99.90
26990;DHT22;14537;47.788;11.858;2024-02-21T05:01:47;1.30;99.90
26990;DHT22;14537;47.788;11.858;2024-02-21T05:04:12;1.30;99.90
26990;DHT22;14537;47.788;11.858;2024-02-21T05:06:39;1.30;99.90
26990;DHT22;14537;47.788;11.858;2024-02-21T05:09:06;1.30;99.90
26990;DHT22;14537;47.788;11.858;2024-02-21T05:11:32;1.30;99.90
26990;DHT22;14537;47.788;11.858;2024-02-21T05:13:57;1.30;99.90
26990;DHT22;14537;47.788;11.858;2024-02-21T05:16:23;1.40;99.90
26990;DHT22;14537;47.788;11.858;2024-02-21T05:18:49;1.30;99.90
26990;DHT22;14537;47.788;11.858;2024-02-21T05:21:14;1.30;99.90
26990;DHT22;14537;47.788;11.858;2024-02-21T05:23:40;1.30;99.90
26990;DHT22;14537;47.788;11.858;2024-02-21T05:26:06;1.30;99.90
26990;DHT22;14537;47.788;11.858;2024-02-21T05:28:32;1.30;99.90
26990;DHT22;14537;47.788;11.858;2024-02-21T05:30:58;1.30;99.90
26990;DHT22;14537;47.788;11.858;2024-02-21T05:33:24;1.30;99.90
26990;DHT22;14537;47.788;11.858;2024-02-21T05:35:52;1.20;99.90
26990;DHT22;14537;47.788;11.858;2024-02-21T05:38:18;1.20;99.90
26990;DHT22;14537;47.788;11.858;2024-02-21T05:40:45;1.20;99.90
26990;DHT22;14537;47.788;11.858;2024-02-21T05:43:10;1.20;99.90
26990;DHT22;14537;47.788;11.858;2024-02-21T05:45:36;1.10;99.90
26990;DHT22;14537;47.788;11.858;2024-02-21T05:48:03;1.00;99.90
26990;DHT22;14537;47.788;11.858;2024-02-21T05:50:28;1.10;99.90
26990;DHT22;14537;47.788;11.858;2024-02-21T05:52:54;1.10;99.90
26990;DHT22;14537;47.788;11.858;2024-02-21T05:55:21;1.00;99.90
26990;DHT22;14537;47.788;11.858;2024-02-21T05:57:46;1.00;99.90
26990;DHT22;14537;47.788;11.858;2024-02-21T06:00:13;1.00;99.90
26990;DHT22;14537;47.788;11.858;2024-02-21T06:02:38;1.00;99.90
26990;DHT22;14537;47.788;11.858;2024-02-21T06:05:05;1.00;99.90
26990;DHT22;14537;47.788;11.858;2024-02-21T06:07:35;1.10;99.90
26990;DHT22;14537;47.788;11.858;2024-02-21T06:10:02;1.00;99.90
26990;DHT22;14537;47.788;11.858;2024-02-21T06:12:28;1.10;99.90
26990;DHT22;14537;47.788;11.858;2024-02-21T06:14:54;1.10;99.90
26990;DHT22;14537;47.788;11.858;2024-02-21T06:17:19;1.00;99.90
26990;DHT22;14537;47.788;11.858;2024-02-21T06:19:45;1.00;99.90
26990;DHT22;14537;47.788;11.858;2024-02-21T06:22:11;1.00;99.90
26990;DHT22;14537;47.788;11.858;2024-02-21T06:24:37;1.10;99.90
26990;DHT22;14537;47.788;11.858;2024-02-21T06:27:04;1.10;99.90
26990;DHT22;14537;47.788;11.858;2024-02-21T06:29:31;1.10;99.90
26990;DHT22;14537;47.788;11.858;2024-02-21T06:31:57;1.10;99.90
26990;DHT22;14537;47.788;11.858;2024-02-21T06:34:22;1.10;99.90
26990;DHT22;14537;47.788;11.858;2024-02-21T06:36:49;1.00;99.90
26990;DHT22;14537;47.788;11.858;2024-02-21T06:39:15;1.00;99.90
26990;DHT22;14537;47.788;11.858;2024-02-21T06:41:41;1.00;99.90
26990;DHT22;14537;47.788;11.858;2024-02-21T06:44:06;1.00;99.90
26990;DHT22;14537;47.788;11.858;2024-02-21T06:46:32;0.90;99.90
26990;DHT22;14537;47.788;11.858;2024-02-21T06:48:59;0.90;99.90
26990;DHT22;14537;47.788;11.858;2024-02-21T06:51:31;0.90;99.90
26990;DHT22;14537;47.788;11.858;2024-02-21T06:53:57;0.90;99.90
26990;DHT22;14537;47.788;11.858;2024-02-21T06:56:24;0.80;99.90
26990;DHT22;14537;47.788;11.858;2024-02-21T06:58:57;0.90;99.90
26990;DHT22;14537;47.788;11.858;2024-02-21T07:01:23;0.90;99.90
26990;DHT22;14537;47.788;11.858;2024-02-21T07:03:49;1.00;99.90
26990;DHT22;14537;47.788;11.858;2024-02-21T07:06:15;1.00;99.90
26990;DHT22;14537;47.788;11.858;2024-02-21T07:08:40;1.00;99.90
26990;DHT22;14537;47.788;11.858;2024-02-21T07:11:06;1.10;99.90
26990;DHT22;14537;47.788;11.858;2024-02-21T07:13:32;1.20;99.90
26990;DHT22;14537;47.788;11.858;2024-02-21T07:15:58;1.30;99.90
26990;DHT22;14537;47.788;11.858;2024-02-21T07:18:24;1.30;99.90
26990;DHT22;14537;47.788;11.858;2024-02-21T07:20:51;1.40;99.90
26990;DHT22;14537;47.788;11.858;2024-02-21T07:23:17;1.50;99.90
26990;DHT22;14537;47.788;11.858;2024-02-21T07:25:42;1.60;99.90
26990;DHT22;14537;47.788;11.858;2024-02-21T07:28:08;1.60;99.90
26990;DHT22;14537;47.788;11.858;2024-02-21T07:30:34;1.70;99.90
26990;DHT22;14537;47.788;11.858;2024-02-21T07:32:59;1.80;99.90
26990;DHT22;14537;47.788;11.858;2024-02-21T07:35:25;1.80;99.90
26990;DHT22;14537;47.788;11.858;2024-02-21T07:37:51;1.90;99.90
26990;DHT22;14537;47.788;11.858;2024-02-21T07:40:17;2.00;99.90
26990;DHT22;14537;47.788;11.858;2024-02-21T07:42:43;2.10;99.90
26990;DHT22;14537;47.788;11.858;2024-02-21T07:45:10;2.20;99.90
26990;DHT22;14537;47.788;11.858;2024-02-21T07:47:36;2.30;99.90
26990;DHT22;14537;47.788;11.858;2024-02-21T07:50:03;2.40;99.90
26990;DHT22;14537;47.788;11.858;2024-02-21T07:52:29;2.50;99.90
26990;DHT22;14537;47.788;11.858;2024-02-21T07:54:54;2.60;99.90
26990;DHT22;14537;47.788;11.858;2024-02-21T07:57:20;2.70;99.90
26990;DHT22;14537;47.788;11.858;2024-02-21T07:59:45;2.70;99.90
26990;DHT22;14537;47.788;11.858;2024-02-21T08:02:16;2.80;99.90
26990;DHT22;14537;47.788;11.858;2024-02-21T08:04:42;2.90;99.90
26990;DHT22;14537;47.788;11.858;2024-02-21T08:07:07;2.90;99.90
26990;DHT22;14537;47.788;11.858;2024-02-21T08:09:33;3.00;99.90
26990;DHT22;14537;47.788;11.858;2024-02-21T08:11:59;3.10;99.90
26990;DHT22;14537;47.788;11.858;2024-02-21T08:14:25;3.20;99.90
26990;DHT22;14537;47.788;11.858;2024-02-21T08:16:51;3.30;99.90
26990;DHT22;14537;47.788;11.858;2024-02-21T08:19:19;3.40;99.90
26990;DHT22;14537;47.788;11.858;2024-02-21T08:21:45;3.50;99.90
26990;DHT22;14537;47.788;11.858;2024-02-21T08:24:13;3.60;99.90
26990;DHT22;14537;47.788;11.858;2024-02-21T08:26:41;3.60;99.90
26990;DHT22;14537;47.788;11.858;2024-02-21T08:29:06;3.70;99.90
26990;DHT22;14537;47.788;11.858;2024-02-21T08:31:32;3.70;99.90
26990;DHT22;14537;47.788;11.858;2024-02-21T08:33:58;3.70;99.90
26990;DHT22;14537;47.788;11.858;2024-02-21T08:36:28;3.70;99.90
26990;DHT22;14537;47.788;11.858;2024-02-21T08:38:54;3.70;99.90
26990;DHT22;14537;47.788;11.858;2024-02-21T08:41:20;3.60;99.90
26990;DHT22;14537;47.788;11.858;2024-02-21T08:43:48;3.60;99.90
26990;DHT22;14537;47.788;11.858;2024-02-21T08:46:14;3.60;99.90
26990;DHT22;14537;47.788;11.858;2024-02-21T08:48:40;3.60;99.90
26990;DHT22;14537;47.788;11.858;2024-02-21T08:51:06;3.60;99.90
26990;DHT22;14537;47.788;11.858;2024-02-21T08:53:31;3.60;99.90
26990;DHT22;14537;47.788;11.858;2024-02-21T08:55:57;3.60;99.90
26990;DHT22;14537;47.788;11.858;2024-02-21T08:58:23;3.70;99.90
26990;DHT22;14537;47.788;11.858;2024-02-21T09:00:51;3.70;99.90
26990;DHT22;14537;47.788;11.858;2024-02-21T09:03:16;3.70;99.90
26990;DHT22;14537;47.788;11.858;2024-02-21T09:05:45;3.80;99.90
26990;DHT22;14537;47.788;11.858;2024-02-21T09:08:11;3.90;99.90
26990;DHT22;14537;47.788;11.858;2024-02-21T09:10:36;4.00;99.90
26990;DHT22;14537;47.788;11.858;2024-02-21T09:13:02;4.10;99.90
26990;DHT22;14537;47.788;11.858;2024-02-21T09:15:29;4.20;99.90
26990;DHT22;14537;47.788;11.858;2024-02-21T09:17:54;4.20;99.90
26990;DHT22;14537;47.788;11.858;2024-02-21T09:20:20;4.40;99.90
26990;DHT22;14537;47.788;11.858;2024-02-21T09:22:46;4.50;99.90
26990;DHT22;14537;47.788;11.858;2024-02-21T09:25:12;4.60;99.90
26990;DHT22;14537;47.788;11.858;2024-02-21T09:27:38;4.80;99.90
26990;DHT22;14537;47.788;11.858;2024-02-21T09:30:05;4.90;99.90
26990;DHT22;14537;47.788;11.858;2024-02-21T09:32:32;5.10;99.90
26990;DHT22;14537;47.788;11.858;2024-02-21T09:34:58;5.30;99.90
26990;DHT22;14537;47.788;11.858;2024-02-21T09:37:24;5.50;99.90
26990;DHT22;14537;47.788;11.858;2024-02-21T09:39:49;5.70;99.90
26990;DHT22;14537;47.788;11.858;2024-02-21T09:42:20;5.90;99.90
26990;DHT22;14537;47.788;11.858;2024-02-21T09:44:46;6.30;99.90
26990;DHT22;14537;47.788;11.858;2024-02-21T09:47:21;6.50;99.90
26990;DHT22;14537;47.788;11.858;2024-02-21T09:49:48;6.60;99.90
26990;DHT22;14537;47.788;11.858;2024-02-21T09:52:15;6.60;99.90
26990;DHT22;14537;47.788;11.858;2024-02-21T09:54:41;6.80;99.90
26990;DHT22;14537;47.788;11.858;2024-02-21T09:57:10;7.00;99.90
26990;DHT22;14537;47.788;11.858;2024-02-21T09:59:36;7.10;99.90
26990;DHT22;14537;47.788;11.858;2024-02-21T10:02:03;7.30;99.90
26990;DHT22;14537;47.788;11.858;2024-02-21T10:04:30;7.40;99.90
26990;DHT22;14537;47.788;11.858;2024-02-21T10:06:56;7.40;99.90
26990;DHT22;14537;47.788;11.858;2024-02-21T10:09:26;7.50;99.90
26990;DHT22;14537;47.788;11.858;2024-02-21T10:11:53;7.50;99.90
26990;DHT22;14537;47.788;11.858;2024-02-21T10:14:19;7.50;99.90
26990;DHT22;14537;47.788;11.858;2024-02-21T10:16:56;7.50;99.90
26990;DHT22;14537;47.788;11.858;2024-02-21T10:19:21;7.50;99.90
26990;DHT22;14537;47.788;11.858;2024-02-21T10:22:09;7.50;99.90
26990;DHT22;14537;47.788;11.858;2024-02-21T10:24:35;7.40;99.90
26990;DHT22;14537;47.788;11.858;2024-02-21T10:27:04;7.40;99.90
26990;DHT22;14537;47.788;11.858;2024-02-21T10:29:31;7.60;99.90
26990;DHT22;14537;47.788;11.858;2024-02-21T10:32:07;7.60;99.90
26990;DHT22;14537;47.788;11.858;2024-02-21T10:34:33;7.60;99.90
26990;DHT22;14537;47.788;11.858;2024-02-21T10:37:06;7.60;99.90
26990;DHT22;14537;47.788;11.858;2024-02-21T10:39:33;7.60;99.90
26990;DHT22;14537;47.788;11.858;2024-02-21T10:42:01;7.60;99.90
26990;DHT22;14537;47.788;11.858;2024-02-21T10:44:32;7.60;99.90
26990;DHT22;14537;47.788;11.858;2024-02-21T10:46:58;7.60;99.90
26990;DHT22;14537;47.788;11.858;2024-02-21T10:49:25;7.60;99.90
26990;DHT22;14537;47.788;11.858;2024-02-21T10:55:19;7.80;99.90
26990;DHT22;14537;47.788;11.858;2024-02-21T10:57:26;8.00;99.90
26990;DHT22;14537;47.788;11.858;2024-02-21T10:59:53;8.10;99.90
26990;DHT22;14537;47.788;11.858;2024-02-21T11:02:20;8.20;99.90
26990;DHT22;14537;47.788;11.858;2024-02-21T11:04:46;8.40;99.90
26990;DHT22;14537;47.788;11.858;2024-02-21T11:07:13;8.60;99.90
26990;DHT22;14537;47.788;11.858;2024-02-21T11:09:39;8.70;99.90
26990;DHT22;14537;47.788;11.858;2024-02-21T11:12:06;8.70;99.90
26990;DHT22;14537;47.788;11.858;2024-02-21T11:14:32;8.80;99.90
26990;DHT22;14537;47.788;11.858;2024-02-21T11:16:58;8.90;99.90
26990;DHT22;14537;47.788;11.858;2024-02-21T11:19:26;9.00;99.90
26990;DHT22;14537;47.788;11.858;2024-02-21T11:21:52;9.00;99.90
26990;DHT22;14537;47.788;11.858;2024-02-21T11:24:29;9.10;99.90
26990;DHT22;14537;47.788;11.858;2024-02-21T11:27:18;9.30;99.90
26990;DHT22;14537;47.788;11.858;2024-02-21T11:29:45;9.30;99.90
26990;DHT22;14537;47.788;11.858;2024-02-21T11:32:15;9.50;99.90
26990;DHT22;14537;47.788;11.858;2024-02-21T11:34:41;9.50;99.90
26990;DHT22;14537;47.788;11.858;2024-02-21T11:37:13;9.70;99.90
26990;DHT22;14537;47.788;11.858;2024-02-21T11:39:41;9.80;99.90
26990;DHT22;14537;47.788;11.858;2024-02-21T11:42:08;9.90;99.90
26990;DHT22;14537;47.788;11.858;2024-02-21T11:44:37;10.00;99.90
26990;DHT22;14537;47.788;11.858;2024-02-21T11:47:08;10.10;99.90
26990;DHT22;14537;47.788;11.858;2024-02-21T11:49:46;10.20;99.90
26990;DHT22;14537;47.788;11.858;2024-02-21T11:52:14;10.40;99.90
26990;DHT22;14537;47.788;11.858;2024-02-21T11:54:41;10.60;99.90
26990;DHT22;14537;47.788;11.858;2024-02-21T11:57:07;10.70;99.90
26990;DHT22;14537;47.788;11.858;2024-02-21T11:59:33;10.80;99.90
26990;DHT22;14537;47.788;11.858;2024-02-21T12:02:00;11.00;99.90
26990;DHT22;14537;47.788;11.858;2024-02-21T12:04:26;11.00;99.90
26990;DHT22;14537;47.788;11.858;2024-02-21T12:06:56;11.10;99.90
26990;DHT22;14537;47.788;11.858;2024-02-21T12:09:23;11.20;99.90
26990;DHT22;14537;47.788;11.858;2024-02-21T12:11:58;11.30;99.90
26990;DHT22;14537;47.788;11.858;2024-02-21T12:14:25;11.30;99.90
26990;DHT22;14537;47.788;11.858;2024-02-21T12:16:50;11.30;99.90
26990;DHT22;14537;47.788;11.858;2024-02-21T12:19:17;11.30;99.90
26990;DHT22;14537;47.788;11.858;2024-02-21T12:21:43;11.30;99.90
26990;DHT22;14537;47.788;11.858;2024-02-21T12:24:22;11.30;99.90
26990;DHT22;14537;47.788;11.858;2024-02-21T12:26:49;11.20;99.90
26990;DHT22;14537;47.788;11.858;2024-02-21T12:29:15;11.10;99.90
26990;DHT22;14537;47.788;11.858;2024-02-21T12:31:41;11.10;99.90
26990;DHT22;14537;47.788;11.858;2024-02-21T12:34:06;11.00;99.90
26990;DHT22;14537;47.788;11.858;2024-02-21T12:36:32;11.00;99.90
26990;DHT22;14537;47.788;11.858;2024-02-21T12:39:01;11.10;99.90
26990;DHT22;14537;47.788;11.858;2024-02-21T12:41:30;11.10;99.90
26990;DHT22;14537;47.788;11.858;2024-02-21T12:43:57;11.20;99.90
26990;DHT22;14537;47.788;11.858;2024-02-21T12:46:23;11.20;99.90
26990;DHT22;14537;47.788;11.858;2024-02-21T12:48:50;11.30;99.90
26990;DHT22;14537;47.788;11.858;2024-02-21T12:51:16;11.40;99.90
26990;DHT22;14537;47.788;11.858;2024-02-21T12:53:47;11.50;99.90
26990;DHT22;14537;47.788;11.858;2024-02-21T12:56:12;11.50;99.90
26990;DHT22;14537;47.788;11.858;2024-02-21T12:58:38;11.60;99.90
26990;DHT22;14537;47.788;11.858;2024-02-21T13:01:04;11.70;99.90
26990;DHT22;14537;47.788;11.858;2024-02-21T13:03:29;11.70;99.90
26990;DHT22;14537;47.788;11.858;2024-02-21T13:05:56;11.70;99.90
26990;DHT22;14537;47.788;11.858;2024-02-21T13:08:21;11.70;99.90
26990;DHT22;14537;47.788;11.858;2024-02-21T13:10:48;11.80;99.90
26990;DHT22;14537;47.788;11.858;2024-02-21T13:13:14;11.80;99.90
26990;DHT22;14537;47.788;11.858;2024-02-21T13:15:40;11.90;99.90
26990;DHT22;14537;47.788;11.858;2024-02-21T13:18:08;11.90;99.90
26990;DHT22;14537;47.788;11.858;2024-02-21T13:20:35;11.90;99.90
26990;DHT22;14537;47.788;11.858;2024-02-21T13:23:01;11.80;99.90
26990;DHT22;14537;47.788;11.858;2024-02-21T13:25:26;11.80;99.90
26990;DHT22;14537;47.788;11.858;2024-02-21T13:27:52;11.90;99.90
26990;DHT22;14537;47.788;11.858;2024-02-21T13:30:17;11.90;99.90
26990;DHT22;14537;47.788;11.858;2024-02-21T13:32:43;11.90;99.90
26990;DHT22;14537;47.788;11.858;2024-02-21T13:35:12;11.90;99.90
26990;DHT22;14537;47.788;11.858;2024-02-21T13:37:41;11.90;99.90
26990;DHT22;14537;47.788;11.858;2024-02-21T13:40:07;11.90;99.90
26990;DHT22;14537;47.788;11.858;2024-02-21T13:42:37;11.90;99.90
26990;DHT22;14537;47.788;11.858;2024-02-21T13:45:03;11.90;99.90
26990;DHT22;14537;47.788;11.858;2024-02-21T13:47:31;11.90;99.90
26990;DHT22;14537;47.788;11.858;2024-02-21T13:49:56;11.90;99.90
26990;DHT22;14537;47.788;11.858;2024-02-21T13:52:22;11.90;99.90
26990;DHT22;14537;47.788;11.858;2024-02-21T13:54:48;11.90;99.90
26990;DHT22;14537;47.788;11.858;2024-02-21T13:57:14;11.90;99.90
26990;DHT22;14537;47.788;11.858;2024-02-21T13:59:42;11.90;99.90
26990;DHT22;14537;47.788;11.858;2024-02-21T14:02:08;11.90;99.90
26990;DHT22;14537;47.788;11.858;2024-02-21T14:04:34;11.90;99.90
26990;DHT22;14537;47.788;11.858;2024-02-21T14:07:00;11.90;99.90
26990;DHT22;14537;47.788;11.858;2024-02-21T14:09:26;12.00;99.90
26990;DHT22;14537;47.788;11.858;2024-02-21T14:11:52;11.90;99.90
26990;DHT22;14537;47.788;11.858;2024-02-21T14:14:17;11.90;99.90
26990;DHT22;14537;47.788;11.858;2024-02-21T14:16:43;11.80;99.90
26990;DHT22;14537;47.788;11.858;2024-02-21T14:19:08;11.90;99.90
26990;DHT22;14537;47.788;11.858;2024-02-21T14:21:34;11.90;99.90
26990;DHT22;14537;47.788;11.858;2024-02-21T14:24:04;12.00;99.90
26990;DHT22;14537;47.788;11.858;2024-02-21T14:26:30;12.00;99.90
26990;DHT22;14537;47.788;11.858;2024-02-21T14:28:57;12.00;99.90
26990;DHT22;14537;47.788;11.858;2024-02-21T14:31:22;12.00;99.90
26990;DHT22;14537;47.788;11.858;2024-02-21T14:33:48;12.00;99.90
26990;DHT22;14537;47.788;11.858;2024-02-21T14:36:14;12.00;99.90
26990;DHT22;14537;47.788;11.858;2024-02-21T14:38:41;12.00;99.90
26990;DHT22;14537;47.788;11.858;2024-02-21T14:41:08;12.00;99.90
26990;DHT22;14537;47.788;11.858;2024-02-21T14:43:34;11.90;99.90
26990;DHT22;14537;47.788;11.858;2024-02-21T14:46:00;12.00;99.90
26990;DHT22;14537;47.788;11.858;2024-02-21T14:48:29;12.00;99.90
26990;DHT22;14537;47.788;11.858;2024-02-21T14:50:55;12.00;99.90
26990;DHT22;14537;47.788;11.858;2024-02-21T14:53:21;12.00;99.90
26990;DHT22;14537;47.788;11.858;2024-02-21T14:55:46;12.10;99.90
26990;DHT22;14537;47.788;11.858;2024-02-21T14:58:12;12.10;99.90
26990;DHT22;14537;47.788;11.858;2024-02-21T15:00:37;12.00;99.90
26990;DHT22;14537;47.788;11.858;2024-02-21T15:03:04;12.10;99.90
26990;DHT22;14537;47.788;11.858;2024-02-21T15:05:29;12.10;99.90
26990;DHT22;14537;47.788;11.858;2024-02-21T15:07:56;12.00;99.90
26990;DHT22;14537;47.788;11.858;2024-02-21T15:10:25;11.90;99.90
26990;DHT22;14537;47.788;11.858;2024-02-21T15:12:50;11.90;99.90
26990;DHT22;14537;47.788;11.858;2024-02-21T15:15:16;11.80;99.90
26990;DHT22;14537;47.788;11.858;2024-02-21T15:17:42;11.80;99.90
26990;DHT22;14537;47.788;11.858;2024-02-21T15:20:08;11.70;99.90
26990;DHT22;14537;47.788;11.858;2024-02-21T15:22:34;11.70;99.90
26990;DHT22;14537;47.788;11.858;2024-02-21T15:25:01;11.60;99.90
26990;DHT22;14537;47.788;11.858;2024-02-21T15:27:27;11.60;99.90